Chase, Canada
Current Conditions -  °F | °C
As of 10:00 PM on Monday 20 Oct 2014 (Local Time) from CYKA Reporting Station
Overcast Overcast  
Wind Chill: 57°   Ceiling: 25000
Heat Index: 57°   Visibility: 40mi
Dew Point: 45°   Wind: 0mph
Humidity: 63%   Direction: NA
Pressure: 29.66"   Gusts: NA
Location:  50.82°N, 119.68°W
Report Text: CYKA 210500Z 00000KT 40SM SCT110 OVC250 14/07 A2966 RMK AC4CI4 SLP045 DENSITY ALT 1500FT
Loading
Personal Weather Stations






























Interactive Weather Map
Tropical Storm Tracking
New forecast layout! Learn more

10-Day Weather Forecast

Advertisements
Track Severe Weather on mobile